sensor_id;sensor_type;location;lat;lon;timestamp;P1;durP1;ratioP1;P2;durP2;ratioP2
7233;SDS011;3658;47.992;10.158;2024-02-21T00:01:21;1.43;;;1.30;;
7233;SDS011;3658;47.992;10.158;2024-02-21T00:03:48;1.67;;;1.53;;
7233;SDS011;3658;47.992;10.158;2024-02-21T00:06:15;1.33;;;1.23;;
7233;SDS011;3658;47.992;10.158;2024-02-21T00:08:42;1.70;;;1.30;;
7233;SDS011;3658;47.992;10.158;2024-02-21T00:11:08;2.10;;;1.30;;
7233;SDS011;3658;47.992;10.158;2024-02-21T00:13:35;1.50;;;1.33;;
7233;SDS011;3658;47.992;10.158;2024-02-21T00:16:03;1.87;;;1.37;;
7233;SDS011;3658;47.992;10.158;2024-02-21T00:18:30;1.50;;;1.40;;
7233;SDS011;3658;47.992;10.158;2024-02-21T00:20:57;1.83;;;1.50;;
7233;SDS011;3658;47.992;10.158;2024-02-21T00:23:26;1.53;;;1.40;;
7233;SDS011;3658;47.992;10.158;2024-02-21T00:25:53;1.90;;;1.30;;
7233;SDS011;3658;47.992;10.158;2024-02-21T00:28:20;1.53;;;1.40;;
7233;SDS011;3658;47.992;10.158;2024-02-21T00:30:47;1.70;;;1.50;;
7233;SDS011;3658;47.992;10.158;2024-02-21T00:33:16;1.40;;;1.30;;
7233;SDS011;3658;47.992;10.158;2024-02-21T00:35:43;1.57;;;1.47;;
7233;SDS011;3658;47.992;10.158;2024-02-21T00:38:10;1.53;;;1.40;;
7233;SDS011;3658;47.992;10.158;2024-02-21T00:40:36;1.97;;;1.37;;
7233;SDS011;3658;47.992;10.158;2024-02-21T00:43:03;1.83;;;1.40;;
7233;SDS011;3658;47.992;10.158;2024-02-21T00:45:30;1.63;;;1.33;;
7233;SDS011;3658;47.992;10.158;2024-02-21T00:47:57;1.40;;;1.30;;
7233;SDS011;3658;47.992;10.158;2024-02-21T00:50:25;1.40;;;1.20;;
7233;SDS011;3658;47.992;10.158;2024-02-21T00:52:51;1.60;;;1.40;;
7233;SDS011;3658;47.992;10.158;2024-02-21T00:55:18;1.47;;;1.37;;
7233;SDS011;3658;47.992;10.158;2024-02-21T00:57:45;1.50;;;1.37;;
7233;SDS011;3658;47.992;10.158;2024-02-21T01:00:12;1.40;;;1.23;;
7233;SDS011;3658;47.992;10.158;2024-02-21T01:02:39;1.40;;;1.30;;
7233;SDS011;3658;47.992;10.158;2024-02-21T01:05:06;1.80;;;1.50;;
7233;SDS011;3658;47.992;10.158;2024-02-21T01:07:35;1.33;;;1.23;;
7233;SDS011;3658;47.992;10.158;2024-02-21T01:10:01;1.37;;;1.27;;
7233;SDS011;3658;47.992;10.158;2024-02-21T01:12:28;1.70;;;1.40;;
7233;SDS011;3658;47.992;10.158;2024-02-21T01:14:55;1.53;;;1.30;;
7233;SDS011;3658;47.992;10.158;2024-02-21T01:17:22;1.57;;;1.47;;
7233;SDS011;3658;47.992;10.158;2024-02-21T01:19:48;1.07;;;1.07;;
7233;SDS011;3658;47.992;10.158;2024-02-21T01:22:15;1.53;;;1.43;;
7233;SDS011;3658;47.992;10.158;2024-02-21T01:24:44;1.33;;;1.23;;
7233;SDS011;3658;47.992;10.158;2024-02-21T01:27:11;1.80;;;1.30;;
7233;SDS011;3658;47.992;10.158;2024-02-21T01:29:37;1.83;;;1.50;;
7233;SDS011;3658;47.992;10.158;2024-02-21T01:32:04;1.90;;;1.30;;
7233;SDS011;3658;47.992;10.158;2024-02-21T01:34:32;1.53;;;1.37;;
7233;SDS011;3658;47.992;10.158;2024-02-21T01:36:58;1.97;;;1.30;;
7233;SDS011;3658;47.992;10.158;2024-02-21T01:39:29;2.73;;;1.20;;
7233;SDS011;3658;47.992;10.158;2024-02-21T01:41:57;1.47;;;1.30;;
7233;SDS011;3658;47.992;10.158;2024-02-21T01:44:24;1.43;;;1.30;;
7233;SDS011;3658;47.992;10.158;2024-02-21T01:46:51;1.70;;;1.40;;
7233;SDS011;3658;47.992;10.158;2024-02-21T01:49:19;1.47;;;1.27;;
7233;SDS011;3658;47.992;10.158;2024-02-21T01:51:46;1.37;;;1.27;;
7233;SDS011;3658;47.992;10.158;2024-02-21T01:54:13;1.40;;;1.30;;
7233;SDS011;3658;47.992;10.158;2024-02-21T01:56:42;1.30;;;1.20;;
7233;SDS011;3658;47.992;10.158;2024-02-21T01:59:10;1.70;;;1.60;;
7233;SDS011;3658;47.992;10.158;2024-02-21T02:01:38;1.63;;;1.30;;
7233;SDS011;3658;47.992;10.158;2024-02-21T02:04:06;1.40;;;1.30;;
7233;SDS011;3658;47.992;10.158;2024-02-21T02:06:33;1.33;;;1.23;;
7233;SDS011;3658;47.992;10.158;2024-02-21T02:08:59;2.30;;;1.40;;
7233;SDS011;3658;47.992;10.158;2024-02-21T02:11:26;1.40;;;1.30;;
7233;SDS011;3658;47.992;10.158;2024-02-21T02:13:53;1.70;;;1.60;;
7233;SDS011;3658;47.992;10.158;2024-02-21T02:16:21;2.27;;;1.33;;
7233;SDS011;3658;47.992;10.158;2024-02-21T02:18:48;1.40;;;1.30;;
7233;SDS011;3658;47.992;10.158;2024-02-21T02:21:15;1.83;;;1.30;;
7233;SDS011;3658;47.992;10.158;2024-02-21T02:23:54;1.60;;;1.50;;
7233;SDS011;3658;47.992;10.158;2024-02-21T02:26:21;1.40;;;1.30;;
7233;SDS011;3658;47.992;10.158;2024-02-21T02:28:48;1.20;;;1.10;;
7233;SDS011;3658;47.992;10.158;2024-02-21T02:31:15;1.40;;;1.30;;
7233;SDS011;3658;47.992;10.158;2024-02-21T02:33:42;1.60;;;1.50;;
7233;SDS011;3658;47.992;10.158;2024-02-21T02:36:09;1.77;;;1.33;;
7233;SDS011;3658;47.992;10.158;2024-02-21T02:38:36;1.30;;;1.20;;
7233;SDS011;3658;47.992;10.158;2024-02-21T02:41:04;1.50;;;1.40;;
7233;SDS011;3658;47.992;10.158;2024-02-21T02:43:31;1.40;;;1.20;;
7233;SDS011;3658;47.992;10.158;2024-02-21T02:45:58;1.37;;;1.27;;
7233;SDS011;3658;47.992;10.158;2024-02-21T02:48:24;1.37;;;1.27;;
7233;SDS011;3658;47.992;10.158;2024-02-21T02:50:51;1.87;;;1.50;;
7233;SDS011;3658;47.992;10.158;2024-02-21T02:53:18;1.33;;;1.23;;
7233;SDS011;3658;47.992;10.158;2024-02-21T02:55:45;1.63;;;1.20;;
7233;SDS011;3658;47.992;10.158;2024-02-21T02:58:13;1.33;;;1.23;;
7233;SDS011;3658;47.992;10.158;2024-02-21T03:00:39;1.20;;;1.10;;
7233;SDS011;3658;47.992;10.158;2024-02-21T03:03:06;1.40;;;1.30;;
7233;SDS011;3658;47.992;10.158;2024-02-21T03:05:34;1.20;;;1.20;;
7233;SDS011;3658;47.992;10.158;2024-02-21T03:08:01;1.43;;;1.30;;
7233;SDS011;3658;47.992;10.158;2024-02-21T03:10:31;1.73;;;1.33;;
7233;SDS011;3658;47.992;10.158;2024-02-21T03:12:58;1.40;;;1.30;;
7233;SDS011;3658;47.992;10.158;2024-02-21T03:15:26;1.20;;;1.10;;
7233;SDS011;3658;47.992;10.158;2024-02-21T03:17:53;1.30;;;1.20;;
7233;SDS011;3658;47.992;10.158;2024-02-21T03:20:20;1.30;;;1.20;;
7233;SDS011;3658;47.992;10.158;2024-02-21T03:22:46;1.37;;;1.20;;
7233;SDS011;3658;47.992;10.158;2024-02-21T03:25:13;1.27;;;1.17;;
7233;SDS011;3658;47.992;10.158;2024-02-21T03:27:40;1.23;;;1.13;;
7233;SDS011;3658;47.992;10.158;2024-02-21T03:30:07;1.30;;;1.20;;
7233;SDS011;3658;47.992;10.158;2024-02-21T03:32:36;1.20;;;1.10;;
7233;SDS011;3658;47.992;10.158;2024-02-21T03:35:04;1.30;;;1.20;;
7233;SDS011;3658;47.992;10.158;2024-02-21T03:37:31;1.20;;;1.10;;
7233;SDS011;3658;47.992;10.158;2024-02-21T03:39:58;1.53;;;1.20;;
7233;SDS011;3658;47.992;10.158;2024-02-21T03:42:24;1.30;;;1.20;;
7233;SDS011;3658;47.992;10.158;2024-02-21T03:44:51;1.20;;;1.10;;
7233;SDS011;3658;47.992;10.158;2024-02-21T03:47:18;1.10;;;1.10;;
7233;SDS011;3658;47.992;10.158;2024-02-21T03:49:46;1.40;;;1.13;;
7233;SDS011;3658;47.992;10.158;2024-02-21T03:52:12;1.20;;;1.10;;
7233;SDS011;3658;47.992;10.158;2024-02-21T03:54:39;1.30;;;1.20;;
7233;SDS011;3658;47.992;10.158;2024-02-21T03:57:06;1.27;;;1.17;;
7233;SDS011;3658;47.992;10.158;2024-02-21T03:59:33;1.37;;;1.27;;
7233;SDS011;3658;47.992;10.158;2024-02-21T04:01:59;1.43;;;1.33;;
7233;SDS011;3658;47.992;10.158;2024-02-21T04:04:29;1.20;;;1.10;;
7233;SDS011;3658;47.992;10.158;2024-02-21T04:06:57;1.47;;;1.37;;
7233;SDS011;3658;47.992;10.158;2024-02-21T04:09:23;1.20;;;1.10;;
7233;SDS011;3658;47.992;10.158;2024-02-21T04:11:50;1.00;;;1.00;;
7233;SDS011;3658;47.992;10.158;2024-02-21T04:14:17;1.00;;;1.00;;
7233;SDS011;3658;47.992;10.158;2024-02-21T04:16:46;1.73;;;1.10;;
7233;SDS011;3658;47.992;10.158;2024-02-21T04:19:12;1.23;;;1.13;;
7233;SDS011;3658;47.992;10.158;2024-02-21T04:21:39;1.20;;;1.10;;
7233;SDS011;3658;47.992;10.158;2024-02-21T04:24:07;1.33;;;1.23;;
7233;SDS011;3658;47.992;10.158;2024-02-21T04:26:34;1.20;;;1.10;;
7233;SDS011;3658;47.992;10.158;2024-02-21T04:29:01;1.37;;;1.27;;
7233;SDS011;3658;47.992;10.158;2024-02-21T04:31:27;1.10;;;1.10;;
7233;SDS011;3658;47.992;10.158;2024-02-21T04:33:54;1.40;;;1.30;;
7233;SDS011;3658;47.992;10.158;2024-02-21T04:36:21;1.23;;;1.13;;
7233;SDS011;3658;47.992;10.158;2024-02-21T04:38:48;1.23;;;1.10;;
7233;SDS011;3658;47.992;10.158;2024-02-21T04:41:17;1.27;;;1.17;;
7233;SDS011;3658;47.992;10.158;2024-02-21T04:43:45;1.30;;;1.20;;
7233;SDS011;3658;47.992;10.158;2024-02-21T04:46:12;1.73;;;1.10;;
7233;SDS011;3658;47.992;10.158;2024-02-21T04:48:39;1.00;;;1.00;;
7233;SDS011;3658;47.992;10.158;2024-02-21T04:51:05;1.23;;;1.13;;
7233;SDS011;3658;47.992;10.158;2024-02-21T04:53:32;1.00;;;1.00;;
7233;SDS011;3658;47.992;10.158;2024-02-21T04:55:59;1.10;;;1.00;;
7233;SDS011;3658;47.992;10.158;2024-02-21T04:58:27;1.00;;;1.00;;
7233;SDS011;3658;47.992;10.158;2024-02-21T05:00:54;0.93;;;0.93;;
7233;SDS011;3658;47.992;10.158;2024-02-21T05:03:20;1.10;;;1.00;;
7233;SDS011;3658;47.992;10.158;2024-02-21T05:05:47;1.20;;;1.10;;
7233;SDS011;3658;47.992;10.158;2024-02-21T05:08:14;1.30;;;1.20;;
7233;SDS011;3658;47.992;10.158;2024-02-21T05:10:41;1.27;;;1.00;;
7233;SDS011;3658;47.992;10.158;2024-02-21T05:13:07;1.20;;;1.10;;
7233;SDS011;3658;47.992;10.158;2024-02-21T05:15:36;1.00;;;1.00;;
7233;SDS011;3658;47.992;10.158;2024-02-21T05:18:03;1.23;;;1.13;;
7233;SDS011;3658;47.992;10.158;2024-02-21T05:20:30;1.27;;;1.10;;
7233;SDS011;3658;47.992;10.158;2024-02-21T05:22:56;1.50;;;1.33;;
7233;SDS011;3658;47.992;10.158;2024-02-21T05:25:23;1.33;;;1.20;;
7233;SDS011;3658;47.992;10.158;2024-02-21T05:27:50;1.30;;;1.10;;
7233;SDS011;3658;47.992;10.158;2024-02-21T05:30:18;2.03;;;1.50;;
7233;SDS011;3658;47.992;10.158;2024-02-21T05:32:46;1.10;;;1.10;;
7233;SDS011;3658;47.992;10.158;2024-02-21T05:35:13;1.30;;;1.20;;
7233;SDS011;3658;47.992;10.158;2024-02-21T05:37:40;1.30;;;1.20;;
7233;SDS011;3658;47.992;10.158;2024-02-21T05:40:07;0.90;;;0.90;;
7233;SDS011;3658;47.992;10.158;2024-02-21T05:42:37;1.00;;;1.00;;
7233;SDS011;3658;47.992;10.158;2024-02-21T05:45:04;1.13;;;1.10;;
7233;SDS011;3658;47.992;10.158;2024-02-21T05:47:31;1.30;;;1.20;;
7233;SDS011;3658;47.992;10.158;2024-02-21T05:49:59;1.17;;;1.07;;
7233;SDS011;3658;47.992;10.158;2024-02-21T05:52:26;1.40;;;1.20;;
7233;SDS011;3658;47.992;10.158;2024-02-21T05:54:53;1.10;;;1.00;;
7233;SDS011;3658;47.992;10.158;2024-02-21T05:57:19;1.33;;;1.23;;
7233;SDS011;3658;47.992;10.158;2024-02-21T05:59:46;1.00;;;1.00;;
7233;SDS011;3658;47.992;10.158;2024-02-21T06:02:13;1.03;;;1.00;;
7233;SDS011;3658;47.992;10.158;2024-02-21T06:04:40;1.20;;;1.10;;
7233;SDS011;3658;47.992;10.158;2024-02-21T06:07:09;1.10;;;1.10;;
7233;SDS011;3658;47.992;10.158;2024-02-21T06:09:35;1.00;;;1.00;;
7233;SDS011;3658;47.992;10.158;2024-02-21T06:12:02;1.30;;;1.20;;
7233;SDS011;3658;47.992;10.158;2024-02-21T06:14:30;1.10;;;1.00;;
7233;SDS011;3658;47.992;10.158;2024-02-21T06:16:56;1.10;;;1.10;;
7233;SDS011;3658;47.992;10.158;2024-02-21T06:19:23;1.00;;;1.00;;
7233;SDS011;3658;47.992;10.158;2024-02-21T06:21:50;1.00;;;1.00;;
7233;SDS011;3658;47.992;10.158;2024-02-21T06:24:18;1.07;;;1.03;;
7233;SDS011;3658;47.992;10.158;2024-02-21T06:26:45;1.10;;;1.10;;
7233;SDS011;3658;47.992;10.158;2024-02-21T06:29:11;1.20;;;1.10;;
7233;SDS011;3658;47.992;10.158;2024-02-21T06:31:39;1.20;;;1.10;;
7233;SDS011;3658;47.992;10.158;2024-02-21T06:34:06;1.07;;;1.00;;
7233;SDS011;3658;47.992;10.158;2024-02-21T06:36:33;1.00;;;1.00;;
7233;SDS011;3658;47.992;10.158;2024-02-21T06:38:59;1.00;;;1.00;;
7233;SDS011;3658;47.992;10.158;2024-02-21T06:41:27;1.17;;;1.07;;
7233;SDS011;3658;47.992;10.158;2024-02-21T06:43:55;0.90;;;0.90;;
7233;SDS011;3658;47.992;10.158;2024-02-21T06:46:22;0.90;;;0.90;;
7233;SDS011;3658;47.992;10.158;2024-02-21T06:48:50;1.13;;;1.03;;
7233;SDS011;3658;47.992;10.158;2024-02-21T06:51:17;1.33;;;1.20;;
7233;SDS011;3658;47.992;10.158;2024-02-21T06:53:43;1.13;;;1.10;;
7233;SDS011;3658;47.992;10.158;2024-02-21T06:56:10;1.37;;;1.27;;
7233;SDS011;3658;47.992;10.158;2024-02-21T06:58:38;0.97;;;0.97;;
7233;SDS011;3658;47.992;10.158;2024-02-21T07:01:05;1.00;;;1.00;;
7233;SDS011;3658;47.992;10.158;2024-02-21T07:03:32;1.30;;;1.20;;
7233;SDS011;3658;47.992;10.158;2024-02-21T07:05:59;1.00;;;1.00;;
7233;SDS011;3658;47.992;10.158;2024-02-21T07:08:25;1.10;;;1.07;;
7233;SDS011;3658;47.992;10.158;2024-02-21T07:10:52;1.23;;;1.13;;
7233;SDS011;3658;47.992;10.158;2024-02-21T07:13:19;3.53;;;1.30;;
7233;SDS011;3658;47.992;10.158;2024-02-21T07:15:48;1.13;;;1.10;;
7233;SDS011;3658;47.992;10.158;2024-02-21T07:18:15;1.37;;;1.00;;
7233;SDS011;3658;47.992;10.158;2024-02-21T07:20:42;0.93;;;0.93;;
7233;SDS011;3658;47.992;10.158;2024-02-21T07:23:09;1.17;;;1.07;;
7233;SDS011;3658;47.992;10.158;2024-02-21T07:25:35;1.07;;;1.03;;
7233;SDS011;3658;47.992;10.158;2024-02-21T07:28:02;0.90;;;0.90;;
7233;SDS011;3658;47.992;10.158;2024-02-21T07:30:29;1.20;;;1.10;;
7233;SDS011;3658;47.992;10.158;2024-02-21T07:32:57;1.10;;;1.10;;
7233;SDS011;3658;47.992;10.158;2024-02-21T07:35:24;1.10;;;1.10;;
7233;SDS011;3658;47.992;10.158;2024-02-21T07:37:51;1.03;;;1.03;;
7233;SDS011;3658;47.992;10.158;2024-02-21T07:40:18;1.23;;;1.13;;
7233;SDS011;3658;47.992;10.158;2024-02-21T07:42:44;1.60;;;1.00;;
7233;SDS011;3658;47.992;10.158;2024-02-21T07:45:11;1.07;;;1.00;;
7233;SDS011;3658;47.992;10.158;2024-02-21T07:47:38;1.30;;;1.20;;
7233;SDS011;3658;47.992;10.158;2024-02-21T07:50:07;1.10;;;1.10;;
7233;SDS011;3658;47.992;10.158;2024-02-21T07:52:34;1.07;;;1.07;;
7233;SDS011;3658;47.992;10.158;2024-02-21T07:55:01;1.40;;;1.30;;
7233;SDS011;3658;47.992;10.158;2024-02-21T07:57:28;1.10;;;1.00;;
7233;SDS011;3658;47.992;10.158;2024-02-21T07:59:55;1.80;;;1.17;;
7233;SDS011;3658;47.992;10.158;2024-02-21T08:02:21;1.10;;;1.00;;
7233;SDS011;3658;47.992;10.158;2024-02-21T08:04:48;1.00;;;0.90;;
7233;SDS011;3658;47.992;10.158;2024-02-21T08:07:16;1.10;;;1.10;;
7233;SDS011;3658;47.992;10.158;2024-02-21T08:09:43;1.00;;;1.00;;
7233;SDS011;3658;47.992;10.158;2024-02-21T08:12:10;1.30;;;1.20;;
7233;SDS011;3658;47.992;10.158;2024-02-21T08:14:36;1.10;;;1.03;;
7233;SDS011;3658;47.992;10.158;2024-02-21T08:17:03;1.10;;;1.00;;
7233;SDS011;3658;47.992;10.158;2024-02-21T08:19:30;1.20;;;1.10;;
7233;SDS011;3658;47.992;10.158;2024-02-21T08:21:57;1.00;;;1.00;;
7233;SDS011;3658;47.992;10.158;2024-02-21T08:24:25;1.10;;;1.00;;
7233;SDS011;3658;47.992;10.158;2024-02-21T08:26:51;1.00;;;1.00;;
7233;SDS011;3658;47.992;10.158;2024-02-21T08:29:18;1.07;;;1.03;;
7233;SDS011;3658;47.992;10.158;2024-02-21T08:31:45;1.13;;;1.07;;
7233;SDS011;3658;47.992;10.158;2024-02-21T08:34:12;0.90;;;0.90;;
7233;SDS011;3658;47.992;10.158;2024-02-21T08:36:38;1.10;;;1.00;;
7233;SDS011;3658;47.992;10.158;2024-02-21T08:39:05;1.10;;;1.00;;
7233;SDS011;3658;47.992;10.158;2024-02-21T08:41:34;1.20;;;1.00;;
7233;SDS011;3658;47.992;10.158;2024-02-21T08:44:00;1.10;;;1.00;;
7233;SDS011;3658;47.992;10.158;2024-02-21T08:46:28;1.20;;;1.10;;
7233;SDS011;3658;47.992;10.158;2024-02-21T08:48:54;1.00;;;1.00;;
7233;SDS011;3658;47.992;10.158;2024-02-21T08:51:21;1.20;;;1.10;;
7233;SDS011;3658;47.992;10.158;2024-02-21T08:53:48;1.10;;;1.00;;
7233;SDS011;3658;47.992;10.158;2024-02-21T08:56:15;1.13;;;1.03;;
7233;SDS011;3658;47.992;10.158;2024-02-21T08:58:44;1.03;;;1.00;;
7233;SDS011;3658;47.992;10.158;2024-02-21T09:01:11;1.00;;;1.00;;
7233;SDS011;3658;47.992;10.158;2024-02-21T09:03:40;1.00;;;1.00;;
7233;SDS011;3658;47.992;10.158;2024-02-21T09:06:07;1.00;;;1.00;;
7233;SDS011;3658;47.992;10.158;2024-02-21T09:08:35;0.90;;;0.90;;
7233;SDS011;3658;47.992;10.158;2024-02-21T09:11:02;0.90;;;0.90;;
7233;SDS011;3658;47.992;10.158;2024-02-21T09:13:29;0.80;;;0.80;;
7233;SDS011;3658;47.992;10.158;2024-02-21T09:15:57;1.00;;;1.00;;
7233;SDS011;3658;47.992;10.158;2024-02-21T09:18:24;0.90;;;0.90;;
7233;SDS011;3658;47.992;10.158;2024-02-21T09:20:51;1.33;;;1.17;;
7233;SDS011;3658;47.992;10.158;2024-02-21T09:23:18;1.00;;;1.00;;
7233;SDS011;3658;47.992;10.158;2024-02-21T09:25:45;1.00;;;1.00;;
7233;SDS011;3658;47.992;10.158;2024-02-21T09:28:12;1.20;;;1.10;;
7233;SDS011;3658;47.992;10.158;2024-02-21T09:30:39;1.17;;;1.07;;
7233;SDS011;3658;47.992;10.158;2024-02-21T09:33:07;0.90;;;0.90;;
7233;SDS011;3658;47.992;10.158;2024-02-21T09:35:33;1.03;;;1.00;;
7233;SDS011;3658;47.992;10.158;2024-02-21T09:38:00;1.10;;;1.10;;
7233;SDS011;3658;47.992;10.158;2024-02-21T09:40:27;1.00;;;1.00;;
7233;SDS011;3658;47.992;10.158;2024-02-21T09:42:56;1.43;;;1.17;;
7233;SDS011;3658;47.992;10.158;2024-02-21T09:45:29;0.90;;;0.90;;
7233;SDS011;3658;47.992;10.158;2024-02-21T09:48:00;1.40;;;1.03;;
7233;SDS011;3658;47.992;10.158;2024-02-21T09:50:50;1.13;;;1.03;;
7233;SDS011;3658;47.992;10.158;2024-02-21T09:53:19;1.10;;;0.90;;
7233;SDS011;3658;47.992;10.158;2024-02-21T09:55:46;0.93;;;0.93;;
7233;SDS011;3658;47.992;10.158;2024-02-21T09:58:14;1.07;;;1.07;;
7233;SDS011;3658;47.992;10.158;2024-02-21T10:00:41;0.90;;;0.90;;
7233;SDS011;3658;47.992;10.158;2024-02-21T10:03:08;0.90;;;0.90;;
7233;SDS011;3658;47.992;10.158;2024-02-21T10:05:36;1.00;;;1.00;;
7233;SDS011;3658;47.992;10.158;2024-02-21T10:08:04;0.80;;;0.80;;
7233;SDS011;3658;47.992;10.158;2024-02-21T10:10:40;1.20;;;1.10;;
7233;SDS011;3658;47.992;10.158;2024-02-21T10:13:08;1.57;;;1.20;;
7233;SDS011;3658;47.992;10.158;2024-02-21T10:15:35;0.87;;;0.87;;
7233;SDS011;3658;47.992;10.158;2024-02-21T10:18:03;1.00;;;1.00;;
7233;SDS011;3658;47.992;10.158;2024-02-21T10:20:31;1.10;;;1.07;;
7233;SDS011;3658;47.992;10.158;2024-02-21T10:23:03;1.10;;;1.00;;
7233;SDS011;3658;47.992;10.158;2024-02-21T10:25:33;1.10;;;1.00;;
7233;SDS011;3658;47.992;10.158;2024-02-21T10:28:00;1.10;;;1.00;;
7233;SDS011;3658;47.992;10.158;2024-02-21T10:30:27;1.00;;;1.00;;
7233;SDS011;3658;47.992;10.158;2024-02-21T10:32:54;1.00;;;1.00;;
7233;SDS011;3658;47.992;10.158;2024-02-21T10:35:27;1.00;;;1.00;;
7233;SDS011;3658;47.992;10.158;2024-02-21T10:37:55;1.17;;;1.07;;
7233;SDS011;3658;47.992;10.158;2024-02-21T10:40:24;0.97;;;0.97;;
7233;SDS011;3658;47.992;10.158;2024-02-21T10:42:54;1.10;;;1.00;;
7233;SDS011;3658;47.992;10.158;2024-02-21T10:45:24;1.03;;;0.93;;
7233;SDS011;3658;47.992;10.158;2024-02-21T10:47:59;1.00;;;1.00;;
7233;SDS011;3658;47.992;10.158;2024-02-21T10:50:36;0.80;;;0.80;;
7233;SDS011;3658;47.992;10.158;2024-02-21T10:53:14;1.00;;;1.00;;
7233;SDS011;3658;47.992;10.158;2024-02-21T10:55:54;0.97;;;0.90;;
7233;SDS011;3658;47.992;10.158;2024-02-21T10:58:25;0.97;;;0.97;;
7233;SDS011;3658;47.992;10.158;2024-02-21T11:00:53;0.80;;;0.80;;
7233;SDS011;3658;47.992;10.158;2024-02-21T11:03:20;0.90;;;0.90;;
7233;SDS011;3658;47.992;10.158;2024-02-21T11:05:48;1.10;;;1.00;;
7233;SDS011;3658;47.992;10.158;2024-02-21T11:08:15;1.00;;;1.00;;
7233;SDS011;3658;47.992;10.158;2024-02-21T11:10:45;1.00;;;0.90;;
7233;SDS011;3658;47.992;10.158;2024-02-21T11:13:13;1.10;;;1.00;;
7233;SDS011;3658;47.992;10.158;2024-02-21T11:15:40;1.00;;;1.00;;
7233;SDS011;3658;47.992;10.158;2024-02-21T11:18:07;0.97;;;0.97;;
7233;SDS011;3658;47.992;10.158;2024-02-21T11:20:35;0.80;;;0.80;;
7233;SDS011;3658;47.992;10.158;2024-02-21T11:23:02;1.00;;;1.00;;
7233;SDS011;3658;47.992;10.158;2024-02-21T11:25:30;1.10;;;1.00;;
7233;SDS011;3658;47.992;10.158;2024-02-21T11:28:01;1.10;;;1.00;;
7233;SDS011;3658;47.992;10.158;2024-02-21T11:30:30;1.07;;;1.03;;
7233;SDS011;3658;47.992;10.158;2024-02-21T11:32:59;1.03;;;0.97;;
7233;SDS011;3658;47.992;10.158;2024-02-21T11:35:30;0.97;;;0.93;;
7233;SDS011;3658;47.992;10.158;2024-02-21T11:37:57;0.90;;;0.90;;
7233;SDS011;3658;47.992;10.158;2024-02-21T11:40:34;0.90;;;0.90;;
7233;SDS011;3658;47.992;10.158;2024-02-21T11:43:01;1.23;;;1.10;;
7233;SDS011;3658;47.992;10.158;2024-02-21T11:45:28;0.83;;;0.83;;
7233;SDS011;3658;47.992;10.158;2024-02-21T11:47:58;0.90;;;0.90;;
7233;SDS011;3658;47.992;10.158;2024-02-21T11:50:28;1.00;;;1.00;;
7233;SDS011;3658;47.992;10.158;2024-02-21T11:52:55;0.80;;;0.80;;
7233;SDS011;3658;47.992;10.158;2024-02-21T11:55:22;1.13;;;1.00;;
7233;SDS011;3658;47.992;10.158;2024-02-21T11:57:49;1.10;;;1.00;;
7233;SDS011;3658;47.992;10.158;2024-02-21T12:00:16;1.03;;;1.03;;
7233;SDS011;3658;47.992;10.158;2024-02-21T12:02:45;0.90;;;0.90;;
7233;SDS011;3658;47.992;10.158;2024-02-21T12:05:13;1.33;;;1.03;;
7233;SDS011;3658;47.992;10.158;2024-02-21T12:07:40;1.97;;;1.00;;
7233;SDS011;3658;47.992;10.158;2024-02-21T12:10:08;0.90;;;0.90;;
7233;SDS011;3658;47.992;10.158;2024-02-21T12:12:36;1.00;;;0.90;;
7233;SDS011;3658;47.992;10.158;2024-02-21T12:15:04;1.00;;;1.00;;
7233;SDS011;3658;47.992;10.158;2024-02-21T12:17:32;1.20;;;1.10;;
7233;SDS011;3658;47.992;10.158;2024-02-21T12:20:00;0.90;;;0.90;;
7233;SDS011;3658;47.992;10.158;2024-02-21T12:22:30;0.90;;;0.90;;
7233;SDS011;3658;47.992;10.158;2024-02-21T12:24:57;1.00;;;1.00;;
7233;SDS011;3658;47.992;10.158;2024-02-21T12:27:24;1.53;;;1.10;;
7233;SDS011;3658;47.992;10.158;2024-02-21T12:29:51;1.00;;;0.90;;
7233;SDS011;3658;47.992;10.158;2024-02-21T12:32:18;1.70;;;0.90;;
7233;SDS011;3658;47.992;10.158;2024-02-21T12:34:45;0.80;;;0.80;;
7233;SDS011;3658;47.992;10.158;2024-02-21T12:37:11;0.80;;;0.80;;
7233;SDS011;3658;47.992;10.158;2024-02-21T12:39:40;2.97;;;1.00;;
7233;SDS011;3658;47.992;10.158;2024-02-21T12:42:07;1.00;;;0.90;;
7233;SDS011;3658;47.992;10.158;2024-02-21T12:44:34;1.07;;;1.00;;
7233;SDS011;3658;47.992;10.158;2024-02-21T12:47:01;1.27;;;0.90;;
7233;SDS011;3658;47.992;10.158;2024-02-21T12:49:28;1.43;;;0.97;;
7233;SDS011;3658;47.992;10.158;2024-02-21T12:51:55;1.23;;;1.10;;
7233;SDS011;3658;47.992;10.158;2024-02-21T12:54:22;0.80;;;0.80;;
7233;SDS011;3658;47.992;10.158;2024-02-21T12:56:50;0.97;;;0.87;;
7233;SDS011;3658;47.992;10.158;2024-02-21T12:59:16;1.03;;;0.93;;
7233;SDS011;3658;47.992;10.158;2024-02-21T13:01:43;1.03;;;0.97;;
7233;SDS011;3658;47.992;10.158;2024-02-21T13:04:10;0.90;;;0.90;;
7233;SDS011;3658;47.992;10.158;2024-02-21T13:06:36;0.97;;;0.97;;
7233;SDS011;3658;47.992;10.158;2024-02-21T13:09:03;1.00;;;1.00;;
7233;SDS011;3658;47.992;10.158;2024-02-21T13:11:33;1.50;;;1.37;;
7233;SDS011;3658;47.992;10.158;2024-02-21T13:14:01;1.10;;;1.00;;
7233;SDS011;3658;47.992;10.158;2024-02-21T13:16:28;1.40;;;1.00;;
7233;SDS011;3658;47.992;10.158;2024-02-21T13:18:55;1.00;;;1.00;;
7233;SDS011;3658;47.992;10.158;2024-02-21T13:21:22;1.37;;;1.20;;
7233;SDS011;3658;47.992;10.158;2024-02-21T13:23:49;1.30;;;1.20;;
7233;SDS011;3658;47.992;10.158;2024-02-21T13:26:15;1.17;;;1.07;;
7233;SDS011;3658;47.992;10.158;2024-02-21T13:28:42;1.10;;;1.10;;
7233;SDS011;3658;47.992;10.158;2024-02-21T13:31:11;1.30;;;1.20;;
7233;SDS011;3658;47.992;10.158;2024-02-21T13:33:38;1.17;;;1.07;;
7233;SDS011;3658;47.992;10.158;2024-02-21T13:36:05;1.00;;;1.00;;
7233;SDS011;3658;47.992;10.158;2024-02-21T13:38:32;1.30;;;1.20;;
7233;SDS011;3658;47.992;10.158;2024-02-21T13:40:59;1.10;;;0.90;;
7233;SDS011;3658;47.992;10.158;2024-02-21T13:43:26;1.07;;;1.07;;
7233;SDS011;3658;47.992;10.158;2024-02-21T13:45:55;1.37;;;1.27;;
7233;SDS011;3658;47.992;10.158;2024-02-21T13:48:24;1.30;;;1.20;;
7233;SDS011;3658;47.992;10.158;2024-02-21T13:50:52;1.40;;;1.30;;
7233;SDS011;3658;47.992;10.158;2024-02-21T13:53:18;1.33;;;1.23;;
7233;SDS011;3658;47.992;10.158;2024-02-21T13:55:46;1.03;;;1.00;;
7233;SDS011;3658;47.992;10.158;2024-02-21T13:58:13;3.63;;;1.20;;
7233;SDS011;3658;47.992;10.158;2024-02-21T14:00:40;1.13;;;1.10;;
7233;SDS011;3658;47.992;10.158;2024-02-21T14:03:06;1.30;;;1.20;;
7233;SDS011;3658;47.992;10.158;2024-02-21T14:05:34;1.40;;;1.30;;
7233;SDS011;3658;47.992;10.158;2024-02-21T14:08:01;1.40;;;1.30;;
7233;SDS011;3658;47.992;10.158;2024-02-21T14:10:30;1.33;;;1.10;;
7233;SDS011;3658;47.992;10.158;2024-02-21T14:12:57;1.40;;;1.30;;
7233;SDS011;3658;47.992;10.158;2024-02-21T14:15:24;1.40;;;1.30;;
7233;SDS011;3658;47.992;10.158;2024-02-21T14:17:51;1.40;;;1.30;;
7233;SDS011;3658;47.992;10.158;2024-02-21T14:20:17;1.30;;;1.20;;
7233;SDS011;3658;47.992;10.158;2024-02-21T14:22:45;1.40;;;1.30;;
7233;SDS011;3658;47.992;10.158;2024-02-21T14:25:12;1.60;;;1.40;;
7233;SDS011;3658;47.992;10.158;2024-02-21T14:27:40;1.40;;;1.30;;
7233;SDS011;3658;47.992;10.158;2024-02-21T14:30:09;1.40;;;1.30;;
7233;SDS011;3658;47.992;10.158;2024-02-21T14:32:36;1.30;;;1.20;;
7233;SDS011;3658;47.992;10.158;2024-02-21T14:35:03;0.97;;;0.97;;
7233;SDS011;3658;47.992;10.158;2024-02-21T14:37:31;1.30;;;1.20;;
7233;SDS011;3658;47.992;10.158;2024-02-21T14:39:59;1.40;;;1.30;;
7233;SDS011;3658;47.992;10.158;2024-02-21T14:42:26;1.33;;;1.23;;
7233;SDS011;3658;47.992;10.158;2024-02-21T14:44:53;1.13;;;1.10;;
7233;SDS011;3658;47.992;10.158;2024-02-21T14:47:28;1.30;;;1.20;;
7233;SDS011;3658;47.992;10.158;2024-02-21T14:49:56;1.70;;;1.20;;
7233;SDS011;3658;47.992;10.158;2024-02-21T14:52:23;1.30;;;1.20;;
7233;SDS011;3658;47.992;10.158;2024-02-21T14:54:52;1.40;;;1.30;;
7233;SDS011;3658;47.992;10.158;2024-02-21T14:57:20;1.50;;;1.40;;
7233;SDS011;3658;47.992;10.158;2024-02-21T14:59:47;1.47;;;1.10;;
7233;SDS011;3658;47.992;10.158;2024-02-21T15:02:15;1.30;;;1.20;;